Time;durP1;ratioP1;P1;durP2;ratioP2;P2;SDS_P1;SDS_P2;PMS_P1;PMS_P2;Temp;Humidity;BMP_temperature;BMP_pressure;BME280_temperature;BME280_humidity;BME280_pressure;Samples;Min_cycle;Max_cycle;Signal;HPM_P1;HPM_P2
2023/12/15 00:00:00;;;;;;;10.15;6.97;;;;;;;;;;5053287;28;20076;-61
2023/12/15 00:02:37;;;;;;;13.65;7.13;;;;;;;;;;5053144;28;20463;-62
2023/12/15 00:05:05;;;;;;;11.02;6.97;;;;;;;;;;5053068;28;20037;-61
2023/12/15 00:07:33;;;;;;;12.82;7.22;;;;;;;;;;5053118;28;20076;-60
2023/12/15 00:10:01;;;;;;;11.05;7.63;;;;;;;;;;5053051;28;20517;-60
2023/12/15 00:12:28;;;;;;;10.75;6.47;;;;;;;;;;5053159;28;20119;-60
2023/12/15 00:14:56;;;;;;;13.45;6.00;;;;;;;;;;5052794;28;20041;-60
2023/12/15 00:17:23;;;;;;;11.50;6.28;;;;;;;;;;5052824;28;20045;-60
2023/12/15 00:19:51;;;;;;;12.10;6.13;;;;;;;;;;5053003;28;20045;-60
2023/12/15 00:22:18;;;;;;;11.82;6.38;;;;;;;;;;5052897;28;20037;-61
2023/12/15 00:24:46;;;;;;;12.93;6.68;;;;;;;;;;5034874;28;20055;-60
2023/12/15 00:27:13;;;;;;;11.98;6.80;;;;;;;;;;5052816;28;20068;-60
2023/12/15 00:29:41;;;;;;;13.77;7.28;;;;;;;;;;5052892;28;20120;-60
2023/12/15 00:32:09;;;;;;;10.75;6.72;;;;;;;;;;5053045;28;20045;-62
2023/12/15 00:34:37;;;;;;;11.23;6.68;;;;;;;;;;5052608;28;20041;-61
2023/12/15 00:37:04;;;;;;;12.25;6.45;;;;;;;;;;5052978;28;20047;-60
2023/12/15 00:39:35;;;;;;;12.40;6.63;;;;;;;;;;5052566;28;20475;-60
2023/12/15 00:42:04;;;;;;;11.57;7.05;;;;;;;;;;5052648;28;20120;-60
2023/12/15 00:44:34;;;;;;;12.80;7.57;;;;;;;;;;5052536;28;20094;-60
2023/12/15 00:47:02;;;;;;;9.52;6.63;;;;;;;;;;5052768;28;20083;-60
2023/12/15 00:49:30;;;;;;;11.48;6.95;;;;;;;;;;5052577;28;20045;-60
2023/12/15 00:51:58;;;;;;;13.80;7.88;;;;;;;;;;5052452;28;20041;-60
2023/12/15 00:54:25;;;;;;;13.23;7.22;;;;;;;;;;5052446;28;20041;-60
2023/12/15 00:56:53;;;;;;;11.77;7.38;;;;;;;;;;5052434;28;20065;-60
2023/12/15 00:59:21;;;;;;;12.63;7.57;;;;;;;;;;5052724;28;20044;-60
2023/12/15 01:01:48;;;;;;;13.00;7.55;;;;;;;;;;5052332;28;20406;-61
2023/12/15 01:04:16;;;;;;;15.25;8.30;;;;;;;;;;5052279;28;20072;-60
2023/12/15 01:06:43;;;;;;;13.68;8.63;;;;;;;;;;5052389;28;20041;-60
2023/12/15 01:09:11;;;;;;;14.48;7.88;;;;;;;;;;5052291;28;20052;-60
2023/12/15 01:11:38;;;;;;;14.95;7.88;;;;;;;;;;5052273;28;20041;-60
2023/12/15 01:14:06;;;;;;;12.88;7.70;;;;;;;;;;5052536;28;20041;-60
2023/12/15 01:16:34;;;;;;;15.13;7.95;;;;;;;;;;5052194;28;20120;-60
2023/12/15 01:19:01;;;;;;;11.60;7.13;;;;;;;;;;5052238;28;20036;-60
2023/12/15 01:21:29;;;;;;;13.55;8.35;;;;;;;;;;5052243;28;20493;-60
2023/12/15 01:23:56;;;;;;;15.50;8.30;;;;;;;;;;5052150;28;20051;-60
2023/12/15 01:26:24;;;;;;;16.20;8.82;;;;;;;;;;5052116;28;20047;-60
2023/12/15 01:28:51;;;;;;;14.23;8.35;;;;;;;;;;5052239;28;20051;-60
2023/12/15 01:31:19;;;;;;;14.90;8.85;;;;;;;;;;5052280;28;20073;-60
2023/12/15 01:33:46;;;;;;;15.40;9.07;;;;;;;;;;5052330;28;20075;-60
2023/12/15 01:36:16;;;;;;;16.00;9.60;;;;;;;;;;5052126;28;20068;-60
2023/12/15 01:38:43;;;;;;;16.10;9.05;;;;;;;;;;5052107;28;20739;-60
2023/12/15 01:41:11;;;;;;;17.23;9.15;;;;;;;;;;5052182;28;20095;-60
2023/12/15 01:43:39;;;;;;;16.58;9.00;;;;;;;;;;5051924;28;20049;-60
2023/12/15 01:46:06;;;;;;;13.98;8.48;;;;;;;;;;5055532;28;20495;-60
2023/12/15 01:49:05;;;;;;;18.08;9.18;;;;;;;;;;5069044;28;20383;-61
2023/12/15 01:51:33;;;;;;;15.77;9.05;;;;;;;;;;5069795;28;20090;-60
2023/12/15 01:54:00;;;;;;;20.23;10.07;;;;;;;;;;5069879;28;20059;-61
2023/12/15 01:56:28;;;;;;;14.88;9.23;;;;;;;;;;5069823;28;20555;-61
2023/12/15 01:58:55;;;;;;;17.30;9.68;;;;;;;;;;5069702;28;20087;-61
2023/12/15 02:01:23;;;;;;;15.80;8.85;;;;;;;;;;5052064;28;20049;-61
2023/12/15 02:03:51;;;;;;;16.17;8.55;;;;;;;;;;5069612;28;20069;-61
2023/12/15 02:06:18;;;;;;;15.82;9.10;;;;;;;;;;5069511;28;20050;-61
2023/12/15 02:08:47;;;;;;;15.27;9.63;;;;;;;;;;5069511;28;20083;-61
2023/12/15 02:11:15;;;;;;;16.95;9.95;;;;;;;;;;5069326;28;20094;-61
2023/12/15 02:13:43;;;;;;;19.15;10.88;;;;;;;;;;5069460;28;20041;-60
2023/12/15 02:16:10;;;;;;;16.05;9.80;;;;;;;;;;5069425;28;20540;-61
2023/12/15 02:18:38;;;;;;;17.45;9.27;;;;;;;;;;5069393;28;20041;-61
2023/12/15 02:21:05;;;;;;;17.33;8.95;;;;;;;;;;5069271;28;20094;-61
2023/12/15 02:23:33;;;;;;;14.90;9.10;;;;;;;;;;5068356;28;20063;-61
2023/12/15 02:26:00;;;;;;;15.82;8.88;;;;;;;;;;5069182;28;20041;-61
2023/12/15 02:28:28;;;;;;;12.38;8.05;;;;;;;;;;5069037;28;20059;-61
2023/12/15 02:30:56;;;;;;;15.13;8.90;;;;;;;;;;5069092;28;20459;-61
2023/12/15 02:33:23;;;;;;;14.98;9.50;;;;;;;;;;5069043;28;20040;-61
2023/12/15 02:35:51;;;;;;;19.35;10.00;;;;;;;;;;5068946;28;20504;-61
2023/12/15 02:38:19;;;;;;;15.57;9.07;;;;;;;;;;5067808;28;20670;-61
2023/12/15 02:40:47;;;;;;;15.18;9.38;;;;;;;;;;5068718;28;20688;-61
2023/12/15 02:43:14;;;;;;;15.38;8.98;;;;;;;;;;5068946;28;20090;-61
2023/12/15 02:45:41;;;;;;;18.15;12.30;;;;;;;;;;5068712;28;20036;-61
2023/12/15 02:48:09;;;;;;;20.33;13.38;;;;;;;;;;5068566;28;20444;-60
2023/12/15 02:50:37;;;;;;;23.52;14.35;;;;;;;;;;5068591;28;20033;-60
2023/12/15 02:53:04;;;;;;;13.32;8.90;;;;;;;;;;5068604;28;20029;-61
2023/12/15 02:55:32;;;;;;;15.00;10.43;;;;;;;;;;5068515;28;20041;-60
2023/12/15 02:57:59;;;;;;;16.48;9.85;;;;;;;;;;5067247;28;20045;-60
2023/12/15 03:00:27;;;;;;;14.40;9.65;;;;;;;;;;5055379;28;20068;-60
2023/12/15 03:02:55;;;;;;;14.75;9.65;;;;;;;;;;5055274;28;20044;-61
2023/12/15 03:05:22;;;;;;;10.00;6.90;;;;;;;;;;5055160;28;20045;-61
2023/12/15 03:07:50;;;;;;;9.98;7.80;;;;;;;;;;5053941;28;20048;-61
2023/12/15 03:10:17;;;;;;;8.98;6.68;;;;;;;;;;5055151;28;20040;-61
2023/12/15 03:12:45;;;;;;;13.07;9.13;;;;;;;;;;5055017;28;20036;-61
2023/12/15 03:15:12;;;;;;;13.05;8.98;;;;;;;;;;5054898;28;20049;-61
2023/12/15 03:17:40;;;;;;;9.50;7.40;;;;;;;;;;5054961;28;20045;-61
2023/12/15 03:20:08;;;;;;;14.10;10.48;;;;;;;;;;5055187;28;20065;-62
2023/12/15 03:22:37;;;;;;;14.07;9.10;;;;;;;;;;5054918;28;20478;-62
2023/12/15 03:25:05;;;;;;;16.08;9.90;;;;;;;;;;5054976;28;20444;-62
2023/12/15 03:27:33;;;;;;;13.18;9.75;;;;;;;;;;5054778;28;20119;-61
2023/12/15 03:30:01;;;;;;;16.40;10.68;;;;;;;;;;5054814;28;20041;-62
2023/12/15 03:32:28;;;;;;;12.32;8.95;;;;;;;;;;5054706;28;20486;-61
2023/12/15 03:34:56;;;;;;;15.80;9.52;;;;;;;;;;5054675;28;20379;-61
2023/12/15 03:37:23;;;;;;;14.07;10.40;;;;;;;;;;5054599;28;20063;-61
2023/12/15 03:39:51;;;;;;;14.80;11.13;;;;;;;;;;5054459;28;20490;-61
2023/12/15 03:42:18;;;;;;;14.65;9.40;;;;;;;;;;5054562;28;20069;-61
2023/12/15 03:44:46;;;;;;;14.68;10.60;;;;;;;;;;5054526;28;20045;-61
2023/12/15 03:47:13;;;;;;;14.10;9.23;;;;;;;;;;5052939;28;20049;-62
2023/12/15 03:49:41;;;;;;;16.55;11.27;;;;;;;;;;5054608;28;20398;-61
2023/12/15 03:52:09;;;;;;;16.83;10.52;;;;;;;;;;5054434;28;20082;-61
2023/12/15 03:54:36;;;;;;;15.75;11.10;;;;;;;;;;5054306;28;20045;-62
2023/12/15 03:57:04;;;;;;;14.70;10.20;;;;;;;;;;5054264;28;20434;-61
2023/12/15 03:59:31;;;;;;;15.82;10.38;;;;;;;;;;5054142;28;20051;-61
2023/12/15 04:01:59;;;;;;;17.60;10.77;;;;;;;;;;5054422;28;20397;-61
2023/12/15 04:04:27;;;;;;;13.43;9.77;;;;;;;;;;5054079;28;20041;-61
2023/12/15 04:06:54;;;;;;;13.32;9.70;;;;;;;;;;5054103;28;20044;-61
2023/12/15 04:09:22;;;;;;;15.20;9.18;;;;;;;;;;5053898;28;20071;-61
2023/12/15 04:11:49;;;;;;;12.52;8.68;;;;;;;;;;5052942;28;20049;-61
2023/12/15 04:14:17;;;;;;;12.07;9.20;;;;;;;;;;5054198;28;20437;-62
2023/12/15 04:16:44;;;;;;;10.30;7.82;;;;;;;;;;5053749;28;20067;-61
2023/12/15 04:19:12;;;;;;;11.15;7.47;;;;;;;;;;5053995;28;20052;-62
2023/12/15 04:21:40;;;;;;;10.35;7.25;;;;;;;;;;5053912;28;20041;-61
2023/12/15 04:24:07;;;;;;;11.57;8.73;;;;;;;;;;5053954;28;20033;-61
2023/12/15 04:26:35;;;;;;;11.55;8.75;;;;;;;;;;5052451;28;20055;-61
2023/12/15 04:29:02;;;;;;;11.60;7.65;;;;;;;;;;5053570;28;20122;-61
2023/12/15 04:31:30;;;;;;;10.05;7.22;;;;;;;;;;5053554;28;20033;-61
2023/12/15 04:33:57;;;;;;;13.02;9.20;;;;;;;;;;5053468;28;20045;-61
2023/12/15 04:36:26;;;;;;;13.57;9.98;;;;;;;;;;5053437;28;20548;-62
2023/12/15 04:38:54;;;;;;;13.40;8.80;;;;;;;;;;5053517;28;20075;-62
2023/12/15 04:41:24;;;;;;;13.10;9.43;;;;;;;;;;5052089;28;20045;-61
2023/12/15 04:43:51;;;;;;;12.70;9.18;;;;;;;;;;5053358;28;20047;-61
2023/12/15 04:46:23;;;;;;;11.50;8.70;;;;;;;;;;5053244;28;20039;-61
2023/12/15 04:48:51;;;;;;;10.48;7.75;;;;;;;;;;5051780;28;20103;-61
2023/12/15 04:51:18;;;;;;;10.38;7.55;;;;;;;;;;5063218;28;20087;-61
2023/12/15 04:53:46;;;;;;;10.35;7.75;;;;;;;;;;5073333;28;20048;-60
2023/12/15 04:56:13;;;;;;;9.13;6.75;;;;;;;;;;5072991;28;20033;-61
2023/12/15 04:58:41;;;;;;;12.13;8.25;;;;;;;;;;5072915;28;20045;-61
2023/12/15 05:01:18;;;;;;;10.88;7.80;;;;;;;;;;5071641;28;20054;-61
2023/12/15 05:03:46;;;;;;;12.07;8.23;;;;;;;;;;5072885;28;20071;-60
2023/12/15 05:06:20;;;;;;;12.18;7.82;;;;;;;;;;5072863;28;20036;-60
2023/12/15 05:08:52;;;;;;;11.25;8.80;;;;;;;;;;5072574;28;20473;-61
2023/12/15 05:11:20;;;;;;;10.75;7.18;;;;;;;;;;5073168;28;20043;-61
2023/12/15 05:13:48;;;;;;;10.45;7.10;;;;;;;;;;5072881;28;20127;-61
2023/12/15 05:16:16;;;;;;;9.60;7.30;;;;;;;;;;5072776;28;20036;-62
2023/12/15 05:18:44;;;;;;;12.77;6.82;;;;;;;;;;5072787;28;20045;-61
2023/12/15 05:21:12;;;;;;;11.32;7.72;;;;;;;;;;5072732;28;20078;-62
2023/12/15 05:23:40;;;;;;;10.73;7.63;;;;;;;;;;5072778;28;20127;-62
2023/12/15 05:26:07;;;;;;;10.00;6.57;;;;;;;;;;5072716;28;20042;-62
2023/12/15 05:28:35;;;;;;;11.02;8.50;;;;;;;;;;5072577;28;20478;-63
2023/12/15 05:31:02;;;;;;;11.48;7.78;;;;;;;;;;5072631;28;20037;-64
2023/12/15 05:33:30;;;;;;;10.75;7.30;;;;;;;;;;5072673;28;20123;-64
2023/12/15 05:35:57;;;;;;;13.55;8.60;;;;;;;;;;5072603;28;20482;-63
2023/12/15 05:38:25;;;;;;;12.15;9.25;;;;;;;;;;5072575;28;20486;-60
2023/12/15 05:40:53;;;;;;;11.27;7.68;;;;;;;;;;5071271;28;20103;-60
2023/12/15 05:43:20;;;;;;;11.65;7.13;;;;;;;;;;5071228;28;20060;-60
2023/12/15 05:45:48;;;;;;;15.30;9.05;;;;;;;;;;5072127;28;20068;-60
2023/12/15 05:48:17;;;;;;;11.43;7.10;;;;;;;;;;5072303;28;20474;-60
2023/12/15 05:50:45;;;;;;;12.18;9.02;;;;;;;;;;5072245;28;20097;-61
2023/12/15 05:53:12;;;;;;;11.57;7.82;;;;;;;;;;5072519;28;20497;-60
2023/12/15 05:55:40;;;;;;;14.57;8.93;;;;;;;;;;5072452;28;20391;-61
2023/12/15 05:58:07;;;;;;;13.10;8.32;;;;;;;;;;5072195;28;20505;-61
2023/12/15 06:00:34;;;;;;;11.40;8.30;;;;;;;;;;5072349;28;20032;-61
2023/12/15 06:03:02;;;;;;;12.32;7.93;;;;;;;;;;5072282;28;20044;-61
2023/12/15 06:05:33;;;;;;;11.75;7.95;;;;;;;;;;5072460;28;20120;-60
2023/12/15 06:08:02;;;;;;;10.73;6.57;;;;;;;;;;5072092;28;20115;-60
2023/12/15 06:10:29;;;;;;;15.68;10.02;;;;;;;;;;5072315;28;20052;-61
2023/12/15 06:12:57;;;;;;;13.02;9.40;;;;;;;;;;5072253;28;20041;-60
2023/12/15 06:15:24;;;;;;;12.68;8.63;;;;;;;;;;5072363;28;20588;-60
2023/12/15 06:17:52;;;;;;;14.90;11.07;;;;;;;;;;5072257;28;20090;-61
2023/12/15 06:20:19;;;;;;;13.32;8.13;;;;;;;;;;5072219;28;20475;-60
2023/12/15 06:22:47;;;;;;;13.20;9.10;;;;;;;;;;5072153;28;20044;-61
2023/12/15 06:25:18;;;;;;;14.93;9.27;;;;;;;;;;5072472;28;20398;-62
2023/12/15 06:27:45;;;;;;;13.98;9.45;;;;;;;;;;5072062;28;20051;-61
2023/12/15 06:30:13;;;;;;;14.55;10.55;;;;;;;;;;5072040;28;20141;-61
2023/12/15 06:32:41;;;;;;;12.55;9.23;;;;;;;;;;5072323;28;20076;-61
2023/12/15 06:35:08;;;;;;;12.93;8.65;;;;;;;;;;5074588;28;20044;-61
2023/12/15 06:37:36;;;;;;;15.43;9.40;;;;;;;;;;5075708;28;20043;-61
2023/12/15 06:40:04;;;;;;;11.88;7.90;;;;;;;;;;5075713;28;20509;-61
2023/12/15 06:42:31;;;;;;;17.05;10.98;;;;;;;;;;5074503;28;20122;-62
2023/12/15 06:45:07;;;;;;;18.02;10.02;;;;;;;;;;5075604;28;20044;-61
2023/12/15 06:47:35;;;;;;;15.82;10.30;;;;;;;;;;5075579;28;20059;-61
2023/12/15 06:50:03;;;;;;;17.52;11.18;;;;;;;;;;5074337;28;20044;-61
2023/12/15 06:52:30;;;;;;;16.17;10.65;;;;;;;;;;5076204;28;20079;-61
2023/12/15 06:54:58;;;;;;;12.88;8.48;;;;;;;;;;5074227;28;20434;-61
2023/12/15 06:57:25;;;;;;;15.40;9.93;;;;;;;;;;5075806;28;20051;-62
2023/12/15 06:59:53;;;;;;;16.92;10.88;;;;;;;;;;5075461;28;20062;-61
2023/12/15 07:02:20;;;;;;;13.55;8.32;;;;;;;;;;5075615;28;20032;-62
2023/12/15 07:04:48;;;;;;;18.13;10.55;;;;;;;;;;5075416;28;20036;-61
2023/12/15 07:07:16;;;;;;;13.93;7.63;;;;;;;;;;5075607;28;20043;-61
2023/12/15 07:09:43;;;;;;;17.55;10.20;;;;;;;;;;5075172;28;20050;-62
2023/12/15 07:12:11;;;;;;;12.40;7.68;;;;;;;;;;5075189;28;20043;-62
2023/12/15 07:14:38;;;;;;;11.20;7.82;;;;;;;;;;5075166;28;20041;-62
2023/12/15 07:17:06;;;;;;;15.52;9.75;;;;;;;;;;5073932;28;20040;-62
2023/12/15 07:19:33;;;;;;;13.40;8.13;;;;;;;;;;5075039;28;20474;-62
2023/12/15 07:22:01;;;;;;;13.60;9.75;;;;;;;;;;5073858;28;20115;-62
2023/12/15 07:24:29;;;;;;;14.63;9.73;;;;;;;;;;5075012;28;20114;-62
2023/12/15 07:26:56;;;;;;;15.32;9.80;;;;;;;;;;5073833;28;20037;-62
2023/12/15 07:29:24;;;;;;;16.58;10.95;;;;;;;;;;5074721;28;20045;-62
2023/12/15 07:31:52;;;;;;;14.90;9.77;;;;;;;;;;5074879;28;20047;-62
2023/12/15 07:34:19;;;;;;;17.02;10.38;;;;;;;;;;5073539;28;20434;-62
2023/12/15 07:36:47;;;;;;;17.83;11.65;;;;;;;;;;5074903;28;20047;-62
2023/12/15 07:39:21;;;;;;;12.95;7.60;;;;;;;;;;5073377;28;20051;-61
2023/12/15 07:41:49;;;;;;;12.05;7.47;;;;;;;;;;5074526;28;20041;-61
2023/12/15 07:44:17;;;;;;;15.35;8.32;;;;;;;;;;5074563;28;20036;-61
2023/12/15 07:46:44;;;;;;;22.20;11.57;;;;;;;;;;5074352;28;20047;-61
2023/12/15 07:49:12;;;;;;;16.50;9.35;;;;;;;;;;5073462;28;20371;-61
2023/12/15 07:51:40;;;;;;;16.60;10.07;;;;;;;;;;5074439;28;20472;-62
2023/12/15 07:54:08;;;;;;;19.25;10.65;;;;;;;;;;5074384;28;20462;-61
2023/12/15 07:56:35;;;;;;;18.58;9.75;;;;;;;;;;5074396;28;20044;-61
2023/12/15 07:59:03;;;;;;;15.95;9.50;;;;;;;;;;5073015;28;20070;-62
2023/12/15 08:01:30;;;;;;;17.38;11.23;;;;;;;;;;5074550;28;20249;-61
2023/12/15 08:03:58;;;;;;;14.95;9.52;;;;;;;;;;5074187;28;20098;-62
2023/12/15 08:06:25;;;;;;;11.43;7.18;;;;;;;;;;5074098;28;20033;-62
2023/12/15 08:08:53;;;;;;;11.95;7.78;;;;;;;;;;5074174;28;20463;-62
2023/12/15 08:11:22;;;;;;;12.88;8.93;;;;;;;;;;5073954;28;20086;-62
2023/12/15 08:13:50;;;;;;;11.68;7.68;;;;;;;;;;5073994;28;20042;-62
2023/12/15 08:16:18;;;;;;;11.43;7.32;;;;;;;;;;5074338;28;20438;-62
2023/12/15 08:18:45;;;;;;;12.30;7.75;;;;;;;;;;5073868;28;20463;-62
2023/12/15 08:21:13;;;;;;;14.65;8.35;;;;;;;;;;5073953;28;20047;-62
2023/12/15 08:23:41;;;;;;;14.30;9.07;;;;;;;;;;5073557;28;20044;-62
2023/12/15 08:26:09;;;;;;;14.45;7.28;;;;;;;;;;5072442;28;20036;-62
2023/12/15 08:28:36;;;;;;;11.32;7.22;;;;;;;;;;5073612;28;20115;-62
2023/12/15 08:31:04;;;;;;;9.80;7.10;;;;;;;;;;5072368;28;20044;-61
2023/12/15 08:33:31;;;;;;;10.25;6.43;;;;;;;;;;5073899;28;20546;-62
2023/12/15 08:35:59;;;;;;;9.73;6.88;;;;;;;;;;5073528;28;20090;-62
2023/12/15 08:38:26;;;;;;;13.25;8.40;;;;;;;;;;5073527;28;20055;-62
2023/12/15 08:40:54;;;;;;;11.93;6.20;;;;;;;;;;5073511;28;20032;-62
2023/12/15 08:43:22;;;;;;;13.40;7.45;;;;;;;;;;5072261;28;20048;-62
2023/12/15 08:45:49;;;;;;;10.68;6.95;;;;;;;;;;5071971;28;20043;-61
2023/12/15 08:48:17;;;;;;;9.52;6.00;;;;;;;;;;5073059;28;20102;-61
2023/12/15 08:50:44;;;;;;;9.95;6.38;;;;;;;;;;5073244;28;20037;-62
2023/12/15 08:53:12;;;;;;;13.73;8.20;;;;;;;;;;5073486;28;20106;-62
2023/12/15 08:55:39;;;;;;;12.13;6.75;;;;;;;;;;5073183;28;20045;-62
2023/12/15 08:58:07;;;;;;;11.30;6.25;;;;;;;;;;5072647;28;20082;-62
2023/12/15 09:00:34;;;;;;;14.57;9.43;;;;;;;;;;5073191;28;20041;-62
2023/12/15 09:03:02;;;;;;;12.93;7.28;;;;;;;;;;5073039;28;20547;-62
2023/12/15 09:05:31;;;;;;;12.45;7.78;;;;;;;;;;5073070;28;20037;-62
2023/12/15 09:08:19;;;;;;;11.77;7.65;;;;;;;;;;5072909;28;20040;-62
2023/12/15 09:10:50;;;;;;;8.93;6.05;;;;;;;;;;5072860;28;20064;-62
2023/12/15 09:13:18;;;;;;;12.23;6.78;;;;;;;;;;5072958;28;20036;-63
2023/12/15 09:15:49;;;;;;;12.93;6.97;;;;;;;;;;5071844;28;20154;-62
2023/12/15 09:18:16;;;;;;;10.52;6.20;;;;;;;;;;5072822;28;20072;-62
2023/12/15 09:20:44;;;;;;;11.38;7.15;;;;;;;;;;5072797;28;20041;-63
2023/12/15 09:23:12;;;;;;;10.48;6.72;;;;;;;;;;5072729;28;20090;-61
2023/12/15 09:25:39;;;;;;;10.73;6.68;;;;;;;;;;5072648;28;20128;-62
2023/12/15 09:28:07;;;;;;;10.20;6.90;;;;;;;;;;5072672;28;20041;-62
2023/12/15 09:30:34;;;;;;;11.20;8.15;;;;;;;;;;5072560;28;20298;-62
2023/12/15 09:33:02;;;;;;;14.00;7.75;;;;;;;;;;5073255;28;20517;-61
2023/12/15 09:35:29;;;;;;;9.98;6.50;;;;;;;;;;5073409;28;20041;-63
2023/12/15 09:37:57;;;;;;;11.55;7.43;;;;;;;;;;5073874;28;20098;-63
2023/12/15 09:40:25;;;;;;;15.55;8.90;;;;;;;;;;5072961;28;20127;-63
2023/12/15 09:42:53;;;;;;;13.00;6.70;;;;;;;;;;5072006;28;20045;-63
2023/12/15 09:45:21;;;;;;;13.68;7.93;;;;;;;;;;5071796;28;20041;-62
2023/12/15 09:47:48;;;;;;;11.30;7.07;;;;;;;;;;5072871;28;20044;-63
2023/12/15 09:50:20;;;;;;;12.43;6.70;;;;;;;;;;5072757;28;20387;-62
2023/12/15 09:52:51;;;;;;;16.15;8.77;;;;;;;;;;5072995;28;20045;-62
2023/12/15 09:55:19;;;;;;;12.20;7.35;;;;;;;;;;5073795;28;20441;-62
2023/12/15 09:57:46;;;;;;;11.82;7.45;;;;;;;;;;5071947;28;20390;-63
2023/12/15 10:00:14;;;;;;;14.57;8.70;;;;;;;;;;5071640;28;20048;-63
2023/12/15 10:02:42;;;;;;;10.27;6.40;;;;;;;;;;5073646;28;20036;-63
2023/12/15 10:05:10;;;;;;;13.15;8.75;;;;;;;;;;5073385;28;20045;-62
2023/12/15 10:07:38;;;;;;;12.57;6.35;;;;;;;;;;5072541;28;20036;-62
2023/12/15 10:10:06;;;;;;;12.45;7.95;;;;;;;;;;5074737;28;20074;-62
2023/12/15 10:12:33;;;;;;;16.05;9.18;;;;;;;;;;5075043;28;20040;-61
2023/12/15 10:15:01;;;;;;;16.92;9.85;;;;;;;;;;5076199;28;20098;-62
2023/12/15 10:17:28;;;;;;;16.70;10.05;;;;;;;;;;5076333;28;20042;-63
2023/12/15 10:20:06;;;;;;;11.98;7.32;;;;;;;;;;5076421;28;20061;-63
2023/12/15 10:22:34;;;;;;;16.83;9.23;;;;;;;;;;5076150;28;20040;-62
2023/12/15 10:25:14;;;;;;;14.40;8.88;;;;;;;;;;5076020;28;20514;-63
2023/12/15 10:27:42;;;;;;;45.08;21.40;;;;;;;;;;5076110;28;20485;-63
2023/12/15 10:30:10;;;;;;;39.83;20.58;;;;;;;;;;5075901;28;20041;-63
2023/12/15 10:32:37;;;;;;;40.90;20.05;;;;;;;;;;5075896;28;20121;-63
2023/12/15 10:35:06;;;;;;;28.38;16.13;;;;;;;;;;5075836;28;20048;-63
2023/12/15 10:37:34;;;;;;;29.00;17.08;;;;;;;;;;5076041;28;20445;-63
2023/12/15 10:40:02;;;;;;;17.33;10.52;;;;;;;;;;5075815;28;20509;-63
2023/12/15 10:42:34;;;;;;;18.45;9.30;;;;;;;;;;5075713;28;20405;-63
2023/12/15 10:45:06;;;;;;;14.15;9.75;;;;;;;;;;5075737;28;20036;-63
2023/12/15 10:47:34;;;;;;;16.90;8.95;;;;;;;;;;5075614;28;20094;-63
2023/12/15 10:50:02;;;;;;;15.95;9.52;;;;;;;;;;5075611;28;20378;-63
2023/12/15 10:52:33;;;;;;;13.38;8.88;;;;;;;;;;5075559;28;20040;-63
2023/12/15 10:55:06;;;;;;;16.05;9.32;;;;;;;;;;5074215;28;20037;-62
2023/12/15 10:57:34;;;;;;;17.08;10.02;;;;;;;;;;5075359;28;20045;-62
2023/12/15 11:00:03;;;;;;;16.25;9.63;;;;;;;;;;5075370;28;20086;-63
2023/12/15 11:02:31;;;;;;;15.82;9.32;;;;;;;;;;5075420;28;20041;-63
2023/12/15 11:05:00;;;;;;;16.40;9.32;;;;;;;;;;5074118;28;20040;-63
2023/12/15 11:07:30;;;;;;;20.92;11.60;;;;;;;;;;5075407;28;20036;-62
2023/12/15 11:09:59;;;;;;;16.27;10.38;;;;;;;;;;5075117;28;20028;-62
2023/12/15 11:12:32;;;;;;;16.40;9.68;;;;;;;;;;5075128;28;20044;-62
2023/12/15 11:14:59;;;;;;;16.25;9.23;;;;;;;;;;5075229;28;20057;-62
2023/12/15 11:17:28;;;;;;;13.50;8.75;;;;;;;;;;5074954;28;20036;-63
2023/12/15 11:20:08;;;;;;;14.18;8.13;;;;;;;;;;5074600;28;20040;-63
2023/12/15 11:22:43;;;;;;;16.60;9.65;;;;;;;;;;5074914;28;20048;-62
2023/12/15 11:25:18;;;;;;;14.48;9.05;;;;;;;;;;5074936;28;20120;-62
2023/12/15 11:27:58;;;;;;;13.05;8.02;;;;;;;;;;5075194;28;20120;-62
2023/12/15 11:30:29;;;;;;;14.32;8.73;;;;;;;;;;5074804;28;20123;-62
2023/12/15 11:32:57;;;;;;;14.00;8.63;;;;;;;;;;5074751;28;20083;-62
2023/12/15 11:35:33;;;;;;;14.90;9.57;;;;;;;;;;5075093;28;20051;-63
2023/12/15 11:38:03;;;;;;;12.00;8.10;;;;;;;;;;5074753;28;20048;-63
2023/12/15 11:40:31;;;;;;;14.23;8.88;;;;;;;;;;5074578;28;20045;-62
2023/12/15 11:42:58;;;;;;;15.32;9.05;;;;;;;;;;5074688;28;20136;-62
2023/12/15 11:45:29;;;;;;;15.50;9.80;;;;;;;;;;5074633;28;20456;-63
2023/12/15 11:47:56;;;;;;;13.73;8.32;;;;;;;;;;5074657;28;20045;-63
2023/12/15 11:50:24;;;;;;;17.73;10.63;;;;;;;;;;5074438;28;20123;-62
2023/12/15 11:52:52;;;;;;;17.48;9.95;;;;;;;;;;5074402;28;20533;-63
2023/12/15 11:55:19;;;;;;;13.93;8.48;;;;;;;;;;5074379;28;20043;-63
2023/12/15 11:57:47;;;;;;;12.90;8.00;;;;;;;;;;5074301;28;20036;-63
2023/12/15 12:00:17;;;;;;;15.30;8.77;;;;;;;;;;5074301;28;20040;-63
2023/12/15 12:02:46;;;;;;;13.05;8.93;;;;;;;;;;5074198;28;20048;-63
2023/12/15 12:05:14;;;;;;;15.55;9.23;;;;;;;;;;5074162;28;20041;-62
2023/12/15 12:07:42;;;;;;;17.52;9.57;;;;;;;;;;5074081;28;20044;-63
2023/12/15 12:10:10;;;;;;;18.40;9.13;;;;;;;;;;5074028;28;20127;-63
2023/12/15 12:12:38;;;;;;;15.60;9.52;;;;;;;;;;5073999;28;20037;-62
2023/12/15 12:15:07;;;;;;;12.88;8.73;;;;;;;;;;5073016;28;20051;-63
2023/12/15 12:17:35;;;;;;;13.57;7.90;;;;;;;;;;5073898;28;20040;-63
2023/12/15 12:20:06;;;;;;;11.93;7.43;;;;;;;;;;5074092;28;20040;-62
2023/12/15 12:22:34;;;;;;;14.57;9.63;;;;;;;;;;5073801;28;20501;-63
2023/12/15 12:25:02;;;;;;;13.77;8.70;;;;;;;;;;5073751;28;20466;-62
2023/12/15 12:27:35;;;;;;;15.30;9.80;;;;;;;;;;5073660;28;20041;-63
2023/12/15 12:30:03;;;;;;;15.27;9.85;;;;;;;;;;5073592;28;20062;-63
2023/12/15 12:32:31;;;;;;;14.45;8.85;;;;;;;;;;5072807;28;20074;-63
2023/12/15 12:34:58;;;;;;;13.18;8.18;;;;;;;;;;5073556;28;20090;-63
2023/12/15 12:37:26;;;;;;;14.55;9.20;;;;;;;;;;5073988;28;20041;-63
2023/12/15 12:39:54;;;;;;;15.93;8.43;;;;;;;;;;5072315;28;20053;-62
2023/12/15 12:42:22;;;;;;;13.75;8.27;;;;;;;;;;5073847;28;20044;-63
2023/12/15 12:44:52;;;;;;;14.25;8.38;;;;;;;;;;5073430;28;20093;-63
2023/12/15 12:47:20;;;;;;;13.30;8.48;;;;;;;;;;5073148;28;20045;-62
2023/12/15 12:49:48;;;;;;;15.00;9.02;;;;;;;;;;5073403;28;20051;-62
2023/12/15 12:52:19;;;;;;;16.40;10.27;;;;;;;;;;5073184;28;20067;-63
2023/12/15 12:54:46;;;;;;;19.65;11.00;;;;;;;;;;5073269;28;20045;-63
2023/12/15 12:57:14;;;;;;;15.27;9.82;;;;;;;;;;5073178;28;20524;-63
2023/12/15 12:59:41;;;;;;;17.98;10.68;;;;;;;;;;5073167;28;20501;-63
2023/12/15 13:02:09;;;;;;;19.02;11.65;;;;;;;;;;5073150;28;20437;-63
2023/12/15 13:04:47;;;;;;;19.17;12.30;;;;;;;;;;5073341;28;20041;-63
2023/12/15 13:07:15;;;;;;;20.58;11.00;;;;;;;;;;5072929;28;20075;-63
2023/12/15 13:09:42;;;;;;;19.17;11.20;;;;;;;;;;5072893;28;20036;-63
2023/12/15 13:12:17;;;;;;;17.70;10.63;;;;;;;;;;5072970;28;20098;-63
2023/12/15 13:14:46;;;;;;;20.48;12.48;;;;;;;;;;5072755;28;20052;-63
2023/12/15 13:17:14;;;;;;;18.05;11.55;;;;;;;;;;5072990;28;20390;-63
2023/12/15 13:19:41;;;;;;;19.90;12.23;;;;;;;;;;5072709;28;20542;-63
2023/12/15 13:22:09;;;;;;;20.02;11.95;;;;;;;;;;5072851;28;20040;-63
2023/12/15 13:24:37;;;;;;;22.05;11.70;;;;;;;;;;5072672;28;20048;-63
2023/12/15 13:27:21;;;;;;;24.20;13.00;;;;;;;;;;5072752;28;20071;-63
2023/12/15 13:29:50;;;;;;;27.50;14.65;;;;;;;;;;5071492;28;20044;-63
2023/12/15 13:32:18;;;;;;;31.88;16.50;;;;;;;;;;5072666;28;20068;-63
2023/12/15 13:34:46;;;;;;;25.13;13.55;;;;;;;;;;5072730;28;20046;-63
2023/12/15 13:37:13;;;;;;;30.60;16.60;;;;;;;;;;5072739;28;20044;-63
2023/12/15 13:39:41;;;;;;;25.25;15.45;;;;;;;;;;5072526;28;20040;-63
2023/12/15 13:42:09;;;;;;;22.60;12.60;;;;;;;;;;5072700;28;20581;-63
2023/12/15 13:44:37;;;;;;;19.88;11.70;;;;;;;;;;5072149;28;20094;-63
2023/12/15 13:47:04;;;;;;;19.60;12.23;;;;;;;;;;5071705;28;20060;-69
2023/12/15 13:49:32;;;;;;;18.98;10.13;;;;;;;;;;5072580;28;20109;-68
2023/12/15 13:52:00;;;;;;;16.13;10.35;;;;;;;;;;5072403;28;20036;-68
2023/12/15 13:54:28;;;;;;;17.00;9.25;;;;;;;;;;5072502;28;20116;-69
2023/12/15 13:56:58;;;;;;;16.52;9.88;;;;;;;;;;5072354;28;20040;-68
2023/12/15 13:59:25;;;;;;;19.67;10.45;;;;;;;;;;5071260;28;20547;-69
2023/12/15 14:01:53;;;;;;;21.95;11.82;;;;;;;;;;5072534;28;20041;-68
2023/12/15 14:04:20;;;;;;;24.88;14.57;;;;;;;;;;5072434;28;20059;-69
2023/12/15 14:06:49;;;;;;;26.65;17.08;;;;;;;;;;5072367;28;20068;-69
2023/12/15 14:09:17;;;;;;;22.60;13.27;;;;;;;;;;5072245;28;20069;-69
2023/12/15 14:11:45;;;;;;;22.60;12.98;;;;;;;;;;5072338;28;20036;-68
2023/12/15 14:14:12;;;;;;;21.15;11.98;;;;;;;;;;5072208;28;20037;-69
2023/12/15 14:16:41;;;;;;;23.77;13.63;;;;;;;;;;5071112;28;20044;-68
2023/12/15 14:19:14;;;;;;;22.25;12.80;;;;;;;;;;5072263;28;20494;-68
2023/12/15 14:21:46;;;;;;;19.63;12.32;;;;;;;;;;5072174;28;20041;-69
2023/12/15 14:24:16;;;;;;;24.33;13.88;;;;;;;;;;5072175;28;20036;-68
2023/12/15 14:26:44;;;;;;;19.13;10.32;;;;;;;;;;5072137;28;20048;-68
2023/12/15 14:29:12;;;;;;;17.30;10.05;;;;;;;;;;5072069;28;20044;-68
2023/12/15 14:31:40;;;;;;;17.83;11.23;;;;;;;;;;5072021;28;20462;-68